Pagrindinis puslapis
METAR-TAF:

METAR-TAF

Oro uostai :

Ambatas, Ekvadoras

platuma: 01-12-43S, ilguma: 078-34-28W, Aukštis: 2591 m

Dabartinis oras

Ataskaita buvo paskelbta 3 valandos ir 32 minutes, ne 21:00 UTC
Ramus vėjas
Temperatūra 19°C
Drėgmė 64%
Slėgis 1023 hPa
Matomumas 10 km arba daugiau
Išsisklaidę debesys ne aukštis 2000 ft
Su prošvaistėmis ne aukštis 10000 ft

METAR: SEAM 222100Z 00000KT 9999 SCT020 BKN100 19/12 Q1023

Laikas: 19:32 (00:32 UTC)


TAF: trūkstamas

Orai ataskaitas ir orų prognozės (METAR, TAF).

turimą stotys yra geltonos ir raudonos taškus žemėlapyje.

Perkelti pele per norėdami pamatyti stoties vardą.

Tada spustelėkite, norėdami matyti oro stebėjimo ir prognozės.

Norėdami pakeisti žemėlapį: spustelėkite ant žalios mygtukų su juodo kryžiaus žemyn,; žalią mygtuką su brūkšneliu, jei norite nutolinti; arba žalių rodyklių gretimoms žemėlapius.


METAR-TAF: